createdAt,value
2022-09-23T00:01:03.595Z,97601.75
2022-09-23T00:03:31.616Z,97597.22
2022-09-23T00:06:03.081Z,97592.91
2022-09-23T00:08:30.193Z,97597.22
2022-09-23T00:10:57.790Z,97600.13
2022-09-23T00:13:24.969Z,97595.16
2022-09-23T00:15:51.525Z,97596.78
2022-09-23T00:18:18.129Z,97589.97
2022-09-23T00:20:45.029Z,97587.81
2022-09-23T00:23:11.459Z,97582.03
2022-09-23T00:25:37.885Z,97592.38
2022-09-23T00:28:04.472Z,97587.00
2022-09-23T00:30:31.218Z,97578.94
2022-09-23T00:32:57.770Z,97585.34
2022-09-23T00:35:24.217Z,97581.22
2022-09-23T00:37:50.740Z,97580.00
2022-09-23T00:40:17.426Z,97589.75
2022-09-23T00:42:49.694Z,97585.19
2022-09-23T00:45:16.920Z,97579.66
2022-09-23T00:48:01.396Z,97574.53
2022-09-23T00:50:39.461Z,97582.41
2022-09-23T00:53:09.743Z,97578.88
2022-09-23T00:55:52.482Z,97573.28
2022-09-23T00:58:25.109Z,97572.25
2022-09-23T01:00:51.555Z,97572.22
2022-09-23T01:03:19.587Z,97566.63
2022-09-23T01:05:46.978Z,97567.16
2022-09-23T01:08:14.857Z,97561.59
2022-09-23T01:11:20.231Z,97553.31
2022-09-23T01:14:17.585Z,97557.59
2022-09-23T01:17:00.780Z,97558.63
2022-09-23T01:19:36.180Z,97555.91
2022-09-23T01:22:23.868Z,97553.22
2022-09-23T01:25:25.817Z,97554.03
2022-09-23T01:28:06.335Z,97550.28
2022-09-23T01:30:46.054Z,97547.00
2022-09-23T01:33:24.394Z,97546.38
2022-09-23T01:36:08.578Z,97549.69
2022-09-23T01:38:42.760Z,97545.97
2022-09-23T01:41:20.658Z,97549.50
2022-09-23T01:44:11.175Z,97545.34
2022-09-23T01:46:51.585Z,97540.00
2022-09-23T01:49:23.988Z,97542.28
2022-09-23T01:51:59.920Z,97536.00
2022-09-23T01:54:38.793Z,97536.44
2022-09-23T01:57:15.088Z,97536.44
2022-09-23T01:59:48.008Z,97528.53
2022-09-23T02:02:17.204Z,97528.84
2022-09-23T02:04:56.893Z,97522.38
2022-09-23T02:07:40.036Z,97525.56
2022-09-23T02:10:11.324Z,97527.09
2022-09-23T02:12:40.775Z,97524.22
2022-09-23T02:15:13.725Z,97524.91
2022-09-23T02:17:54.068Z,97521.06
2022-09-23T02:20:29.545Z,97521.94
2022-09-23T02:22:59.671Z,97521.91
2022-09-23T02:25:35.310Z,97528.16
2022-09-23T02:28:12.141Z,97524.69
2022-09-23T02:31:07.610Z,97527.19
2022-09-23T02:33:45.660Z,97525.72
2022-09-23T02:36:32.981Z,97521.81
2022-09-23T02:39:05.087Z,97527.41
2022-09-23T02:42:06.073Z,97527.00
2022-09-23T02:44:32.908Z,97522.25
2022-09-23T02:46:59.761Z,97516.09
2022-09-23T02:49:30.776Z,97517.94
2022-09-23T02:52:01.073Z,97516.28
2022-09-23T02:54:28.951Z,97511.97
2022-09-23T02:56:55.376Z,97513.63
2022-09-23T02:59:23.549Z,97508.25
2022-09-23T03:02:08.883Z,97503.91
2022-09-23T03:04:35.430Z,97505.97
2022-09-23T03:07:47.480Z,97501.25
2022-09-23T03:10:35.028Z,97507.84
2022-09-23T03:13:29.848Z,97505.75
2022-09-23T03:16:07.165Z,97501.63
2022-09-23T03:18:51.549Z,97499.81
2022-09-23T03:21:28.737Z,97495.47
2022-09-23T03:24:00.585Z,97501.44
2022-09-23T03:26:36.656Z,97497.72
2022-09-23T03:29:09.240Z,97496.69
2022-09-23T03:31:39.657Z,97494.19
2022-09-23T03:34:14.124Z,97494.66
2022-09-23T03:36:53.636Z,97495.06
2022-09-23T03:39:58.450Z,97497.34
2022-09-23T03:42:29.999Z,97498.56
2022-09-23T03:44:57.474Z,97492.38
2022-09-23T03:47:28.403Z,97491.56
2022-09-23T03:49:56.440Z,97486.38
2022-09-23T03:52:24.507Z,97483.91
2022-09-23T03:54:51.989Z,97485.38
2022-09-23T03:57:20.105Z,97481.47
2022-09-23T03:59:46.518Z,97486.41
2022-09-23T04:02:13.051Z,97475.28
2022-09-23T04:04:41.000Z,97471.78
2022-09-23T04:07:07.434Z,97479.00
2022-09-23T04:09:35.106Z,97475.47
2022-09-23T04:12:01.868Z,97472.81
2022-09-23T04:14:28.285Z,97474.44
2022-09-23T04:16:54.969Z,97468.88
2022-09-23T04:19:21.526Z,97478.97
2022-09-23T04:21:48.450Z,97467.84
2022-09-23T04:24:15.996Z,97465.41
2022-09-23T04:26:43.007Z,97467.44
2022-09-23T04:29:10.511Z,97460.44
2022-09-23T04:31:37.065Z,97469.72
2022-09-23T04:34:03.639Z,97462.28
2022-09-23T04:36:30.327Z,97460.03
2022-09-23T04:38:56.753Z,97456.94
2022-09-23T04:41:23.352Z,97462.50
2022-09-23T04:43:49.780Z,97463.31
2022-09-23T04:46:16.537Z,97461.69
2022-09-23T04:48:43.249Z,97461.88
2022-09-23T04:51:15.086Z,97464.34
2022-09-23T04:53:43.636Z,97464.97
2022-09-23T04:56:13.504Z,97466.63
2022-09-23T04:58:40.536Z,97465.81
2022-09-23T05:01:14.561Z,97465.19
2022-09-23T05:03:42.790Z,97462.09
2022-09-23T05:06:10.997Z,97469.09
2022-09-23T05:08:37.437Z,97476.50
2022-09-23T05:11:05.309Z,97477.34
2022-09-23T05:13:32.570Z,97476.50
2022-09-23T05:16:04.384Z,97472.78
2022-09-23T05:18:32.541Z,97478.94
2022-09-23T05:20:59.149Z,97481.78
2022-09-23T05:23:27.094Z,97483.03
2022-09-23T05:26:02.193Z,97476.63
2022-09-23T05:28:32.692Z,97476.97
2022-09-23T05:31:20.722Z,97468.91
2022-09-23T05:33:51.905Z,97469.72
2022-09-23T05:36:20.467Z,97466.78
2022-09-23T05:38:49.084Z,97478.16
2022-09-23T05:41:16.072Z,97473.56
2022-09-23T05:43:42.932Z,97469.34
2022-09-23T05:46:35.837Z,97465.50
2022-09-23T05:49:04.151Z,97463.78
2022-09-23T05:51:32.485Z,97466.16
2022-09-23T05:54:00.390Z,97469.31
2022-09-23T05:56:28.081Z,97464.72
2022-09-23T05:58:57.439Z,97466.28
2022-09-23T06:01:26.249Z,97468.19
2022-09-23T06:03:56.846Z,97466.41
2022-09-23T06:06:28.701Z,97465.47
2022-09-23T06:08:55.181Z,97458.75
2022-09-23T06:11:21.668Z,97459.78
2022-09-23T06:13:49.241Z,97466.28
2022-09-23T06:16:16.488Z,97461.16
2022-09-23T06:18:45.115Z,97459.97
2022-09-23T06:21:16.476Z,97461.06
2022-09-23T06:23:43.952Z,97463.22
2022-09-23T06:26:12.969Z,97456.44
2022-09-23T06:28:41.276Z,97452.69
2022-09-23T06:31:14.107Z,97448.94
2022-09-23T06:33:45.092Z,97449.66
2022-09-23T06:36:18.039Z,97442.66
2022-09-23T06:38:50.997Z,97445.84
2022-09-23T06:41:17.737Z,97447.28
2022-09-23T06:43:44.186Z,97445.53
2022-09-23T06:46:15.552Z,97456.31
2022-09-23T06:48:46.455Z,97448.81
2022-09-23T06:51:19.397Z,97452.34
2022-09-23T06:53:47.772Z,97462.03
2022-09-23T06:56:14.842Z,97448.94
2022-09-23T06:58:41.363Z,97457.09
2022-09-23T07:01:10.113Z,97454.72
2022-09-23T07:03:37.081Z,97452.94
2022-09-23T07:06:04.769Z,97455.03
2022-09-23T07:08:33.636Z,97445.56
2022-09-23T07:11:03.259Z,97462.06
2022-09-23T07:13:30.743Z,97461.19
2022-09-23T07:15:58.824Z,97454.91
2022-09-23T07:18:26.293Z,97460.06
2022-09-23T07:20:53.731Z,97468.94
2022-09-23T07:23:20.693Z,97462.78
2022-09-23T07:25:50.143Z,97461.63
2022-09-23T07:28:16.575Z,97462.53
2022-09-23T07:30:55.873Z,97457.19
2022-09-23T07:33:32.154Z,97462.19
2022-09-23T07:35:59.020Z,97461.44
2022-09-23T07:38:29.741Z,97464.47
2022-09-23T07:41:08.771Z,97464.09
2022-09-23T07:43:35.620Z,97471.22
2022-09-23T07:46:06.973Z,97466.13
2022-09-23T07:48:34.936Z,97473.56
2022-09-23T07:51:07.493Z,97473.94
2022-09-23T07:53:34.074Z,97472.38
2022-09-23T07:56:00.618Z,97470.00
2022-09-23T07:58:27.034Z,97475.53
2022-09-23T08:00:53.579Z,97466.72
2022-09-23T08:03:20.817Z,97461.41
2022-09-23T08:05:47.242Z,97467.53
2022-09-23T08:08:14.070Z,97468.34
2022-09-23T08:10:40.485Z,97474.69
2022-09-23T08:13:06.926Z,97479.03
2022-09-23T08:15:33.559Z,97477.59
2022-09-23T08:18:00.393Z,97477.16
2022-09-23T08:20:47.680Z,97475.59
2022-09-23T08:23:16.111Z,97476.16
2022-09-23T08:25:46.813Z,97477.88
2022-09-23T08:28:16.604Z,97479.28
2022-09-23T08:30:44.303Z,97481.00
2022-09-23T08:33:12.033Z,97482.66
2022-09-23T08:35:38.460Z,97480.00
2022-09-23T08:38:05.311Z,97476.81
2022-09-23T08:40:39.208Z,97477.41
2022-09-23T08:43:07.182Z,97474.56
2022-09-23T08:45:36.020Z,97479.25
2022-09-23T08:48:13.028Z,97473.84
2022-09-23T08:50:54.773Z,97471.22
2022-09-23T08:53:32.124Z,97480.53
2022-09-23T08:56:02.743Z,97470.78
2022-09-23T08:58:47.617Z,97470.28
2022-09-23T09:01:34.600Z,97470.03
2022-09-23T09:04:04.239Z,97476.91
2022-09-23T09:06:52.517Z,97474.25
2022-09-23T09:09:24.971Z,97466.09
2022-09-23T09:11:58.050Z,97475.41
2022-09-23T09:14:26.692Z,97464.56
2022-09-23T09:17:00.437Z,97463.53
2022-09-23T09:19:52.077Z,97463.81
2022-09-23T09:22:44.656Z,97458.97
2022-09-23T09:25:44.588Z,97462.78
2022-09-23T09:28:42.290Z,97458.69
2022-09-23T09:31:11.972Z,97457.91
2022-09-23T09:33:57.893Z,97459.81
2022-09-23T09:36:50.227Z,97453.84
2022-09-23T09:39:17.246Z,97446.47
2022-09-23T09:41:48.528Z,97450.28
2022-09-23T09:44:37.190Z,97448.09
2022-09-23T09:47:16.798Z,97436.41
2022-09-23T09:49:53.869Z,97437.19
2022-09-23T09:52:29.502Z,97441.31
2022-09-23T09:55:22.450Z,97436.13
2022-09-23T09:58:01.549Z,97430.34
2022-09-23T10:00:27.981Z,97430.91
2022-09-23T10:03:03.773Z,97429.22
2022-09-23T10:05:33.006Z,97425.13
2022-09-23T10:08:18.168Z,97429.22
2022-09-23T10:11:12.919Z,97433.56
2022-09-23T10:13:39.873Z,97428.38
2022-09-23T10:16:06.590Z,97428.88
2022-09-23T10:18:38.626Z,97428.03
2022-09-23T10:21:15.673Z,97430.72
2022-09-23T10:23:57.940Z,97423.34
2022-09-23T10:26:32.185Z,97419.47
2022-09-23T10:29:02.419Z,97409.38
2022-09-23T10:31:34.057Z,97408.19
2022-09-23T10:34:20.700Z,97411.97
2022-09-23T10:36:55.599Z,97407.44
2022-09-23T10:39:40.657Z,97413.13
2022-09-23T10:42:45.274Z,97408.66
2022-09-23T10:45:43.283Z,97407.03
2022-09-23T10:48:19.385Z,97405.59
2022-09-23T10:50:52.205Z,97402.03
2022-09-23T10:53:30.080Z,97402.81
2022-09-23T10:56:14.828Z,97403.00
2022-09-23T10:59:03.695Z,97403.28
2022-09-23T11:01:48.827Z,97389.56
2022-09-23T11:04:25.799Z,97393.63
2022-09-23T11:07:18.073Z,97387.06
2022-09-23T11:10:11.361Z,97383.19
2022-09-23T11:12:54.077Z,97385.31
2022-09-23T11:15:44.126Z,97379.66
2022-09-23T11:18:41.722Z,97382.94
2022-09-23T11:21:37.008Z,97377.72
2022-09-23T11:24:22.864Z,97376.47
2022-09-23T11:27:07.350Z,97382.13
2022-09-23T11:29:56.349Z,97376.72
2022-09-23T11:32:22.690Z,97367.78
2022-09-23T11:35:19.315Z,97367.19
2022-09-23T11:37:53.259Z,97368.72
2022-09-23T11:40:29.488Z,97371.16
2022-09-23T11:43:04.197Z,97367.09
2022-09-23T11:45:35.596Z,97368.94
2022-09-23T11:48:21.721Z,97366.44
2022-09-23T11:50:56.957Z,97367.09
2022-09-23T11:53:44.852Z,97361.38
2022-09-23T11:56:34.809Z,97356.25
2022-09-23T11:59:39.456Z,97354.94
2022-09-23T12:02:29.652Z,97358.34
2022-09-23T12:05:10.801Z,97359.34
2022-09-23T12:07:56.497Z,97353.59
2022-09-23T12:10:36.630Z,97351.59
2022-09-23T12:13:32.700Z,97356.97
2022-09-23T12:16:25.629Z,97349.34
2022-09-23T12:19:42.750Z,97349.78
2022-09-23T12:22:40.288Z,97345.38
2022-09-23T12:25:45.836Z,97349.09
2022-09-23T12:28:24.465Z,97340.78
2022-09-23T12:30:55.146Z,97347.47
2022-09-23T12:33:26.406Z,97341.09
2022-09-23T12:35:55.021Z,97342.34
2022-09-23T12:38:25.600Z,97327.06
2022-09-23T12:40:55.784Z,97326.56
2022-09-23T12:43:30.928Z,97335.19
2022-09-23T12:46:29.845Z,97329.47
2022-09-23T12:48:57.774Z,97331.75
2022-09-23T12:51:35.260Z,97327.69
2022-09-23T12:54:04.355Z,97324.66
2022-09-23T12:56:33.927Z,97324.34
2022-09-23T12:59:12.922Z,97313.00
2022-09-23T13:01:39.699Z,97323.91
2022-09-23T13:04:24.758Z,97318.97
2022-09-23T13:06:58.733Z,97316.44
2022-09-23T13:09:29.413Z,97308.41
2022-09-23T13:12:06.199Z,97308.84
2022-09-23T13:14:34.369Z,97309.22
2022-09-23T13:17:01.067Z,97314.84
2022-09-23T13:19:35.390Z,97303.69
2022-09-23T13:22:11.678Z,97308.53
2022-09-23T13:24:42.477Z,97304.91
2022-09-23T13:27:20.262Z,97307.97
2022-09-23T13:30:14.092Z,97310.69
2022-09-23T13:32:51.146Z,97312.31
2022-09-23T13:35:34.316Z,97306.84
2022-09-23T13:38:10.622Z,97290.53
2022-09-23T13:40:38.651Z,97282.66
2022-09-23T13:43:09.513Z,97285.91
2022-09-23T13:45:42.911Z,97277.16
2022-09-23T13:48:15.343Z,97282.69
2022-09-23T13:50:51.085Z,97289.25
2022-09-23T13:53:25.406Z,97285.28
2022-09-23T13:56:14.312Z,97281.69
2022-09-23T13:58:41.364Z,97287.16
2022-09-23T14:01:22.379Z,97283.25
2022-09-23T14:03:48.968Z,97280.63
2022-09-23T14:06:16.251Z,97274.78
2022-09-23T14:08:49.712Z,97272.97
2022-09-23T14:11:18.341Z,97269.34
2022-09-23T14:13:47.095Z,97270.59
2022-09-23T14:16:15.310Z,97277.88
2022-09-23T14:18:47.465Z,97267.28
2022-09-23T14:21:35.142Z,97272.09
2022-09-23T14:24:21.782Z,97274.56
2022-09-23T14:27:01.513Z,97265.06
2022-09-23T14:29:33.757Z,97258.09
2022-09-23T14:32:23.886Z,97248.94
2022-09-23T14:35:06.524Z,97251.28
2022-09-23T14:37:57.514Z,97246.81
2022-09-23T14:40:32.911Z,97241.81
2022-09-23T14:43:02.265Z,97241.09
2022-09-23T14:45:34.580Z,97238.16
2022-09-23T14:48:14.317Z,97239.47
2022-09-23T14:50:48.305Z,97237.69
2022-09-23T14:53:22.317Z,97236.28
2022-09-23T14:55:52.781Z,97236.84
2022-09-23T14:58:22.976Z,97232.06
2022-09-23T15:01:00.607Z,97237.50
2022-09-23T15:03:28.585Z,97228.56
2022-09-23T15:06:08.338Z,97231.81
2022-09-23T15:08:35.683Z,97239.94
2022-09-23T15:11:08.067Z,97235.75
2022-09-23T15:13:41.421Z,97240.75
2022-09-23T15:16:08.195Z,97252.25
2022-09-23T15:18:36.686Z,97248.16
2022-09-23T15:21:10.061Z,97237.00
2022-09-23T15:23:45.200Z,97234.41
2022-09-23T15:26:18.408Z,97236.97
2022-09-23T15:28:46.183Z,97237.41
2022-09-23T15:31:18.411Z,97233.09
2022-09-23T15:33:49.179Z,97241.09
2022-09-23T15:36:20.579Z,97236.59
2022-09-23T15:38:47.739Z,97241.75
2022-09-23T15:41:14.882Z,97239.69
2022-09-23T15:43:41.876Z,97238.19
2022-09-23T15:46:17.951Z,97232.91
2022-09-23T15:48:58.450Z,97237.19
2022-09-23T15:51:26.824Z,97240.53
2022-09-23T15:53:55.085Z,97238.69
2022-09-23T15:56:22.672Z,97232.31
2022-09-23T15:58:49.657Z,97237.97
2022-09-23T16:01:34.240Z,97243.81
2022-09-23T16:04:02.361Z,97240.34
2022-09-23T16:06:28.755Z,97234.06
2022-09-23T16:08:55.618Z,97223.94
2022-09-23T16:11:29.210Z,97213.38
2022-09-23T16:13:55.589Z,97220.47
2022-09-23T16:16:22.121Z,97211.91
2022-09-23T16:18:51.101Z,97217.94
2022-09-23T16:21:26.285Z,97218.59
2022-09-23T16:23:54.385Z,97215.81
2022-09-23T16:26:27.294Z,97217.41
2022-09-23T16:28:56.852Z,97216.88
2022-09-23T16:31:29.507Z,97218.72
2022-09-23T16:33:56.453Z,97214.06
2022-09-23T16:36:30.970Z,97208.81
2022-09-23T16:38:59.058Z,97207.13
2022-09-23T16:41:29.051Z,97204.69
2022-09-23T16:43:56.212Z,97206.28
2022-09-23T16:46:23.891Z,97204.53
2022-09-23T16:48:52.902Z,97203.03
2022-09-23T16:51:22.117Z,97207.53
2022-09-23T16:53:49.989Z,97202.66
2022-09-23T16:56:18.108Z,97219.28
2022-09-23T16:58:44.749Z,97233.19
2022-09-23T17:01:34.750Z,97240.28
2022-09-23T17:04:01.482Z,97231.81
2022-09-23T17:06:27.908Z,97233.97
2022-09-23T17:08:54.424Z,97235.38
2022-09-23T17:11:21.502Z,97243.50
2022-09-23T17:13:49.188Z,97240.81
2022-09-23T17:16:35.112Z,97235.09
2022-09-23T17:19:09.622Z,97236.63
2022-09-23T17:21:36.598Z,97237.69
2022-09-23T17:24:03.721Z,97231.72
2022-09-23T17:26:30.229Z,97223.00
2022-09-23T17:28:58.681Z,97232.69
2022-09-23T17:31:25.893Z,97227.72
2022-09-23T17:33:52.827Z,97219.84
2022-09-23T17:36:20.081Z,97232.56
2022-09-23T17:38:48.201Z,97223.81
2022-09-23T17:41:15.313Z,97231.84
2022-09-23T17:43:41.932Z,97222.34
2022-09-23T17:46:17.950Z,97220.88
2022-09-23T17:48:45.094Z,97213.47
2022-09-23T17:51:16.039Z,97210.56
2022-09-23T17:53:45.270Z,97217.22
2022-09-23T17:56:22.606Z,97214.81
2022-09-23T17:58:49.601Z,97215.69
2022-09-23T18:01:19.960Z,97214.09
2022-09-23T18:03:47.253Z,97211.31
2022-09-23T18:06:15.676Z,97205.81
2022-09-23T18:08:44.341Z,97210.22
2022-09-23T18:11:13.006Z,97211.81
2022-09-23T18:13:39.504Z,97219.72
2022-09-23T18:16:07.215Z,97209.25
2022-09-23T18:18:33.720Z,97212.56
2022-09-23T18:21:04.910Z,97213.81
2022-09-23T18:23:31.337Z,97203.63
2022-09-23T18:25:57.761Z,97203.91
2022-09-23T18:28:24.237Z,97205.81
2022-09-23T18:30:55.241Z,97199.72
2022-09-23T18:33:22.575Z,97206.94
2022-09-23T18:35:49.957Z,97203.22
2022-09-23T18:38:16.469Z,97196.06
2022-09-23T18:40:50.753Z,97208.81
2022-09-23T18:43:19.698Z,97208.75
2022-09-23T18:45:55.314Z,97207.31
2022-09-23T18:48:40.237Z,97202.69
2022-09-23T18:51:08.585Z,97201.41
2022-09-23T18:53:35.797Z,97201.09
2022-09-23T18:56:13.764Z,97201.09
2022-09-23T18:58:45.341Z,97195.41
2022-09-23T19:01:12.538Z,97199.66
2022-09-23T19:03:39.525Z,97193.56
2022-09-23T19:06:21.175Z,97191.75
2022-09-23T19:08:50.043Z,97192.00
2022-09-23T19:11:16.696Z,97194.81
2022-09-23T19:13:43.152Z,97201.56
2022-09-23T19:16:15.258Z,97207.38
2022-09-23T19:18:46.234Z,97204.09
2022-09-23T19:21:14.317Z,97200.84
2022-09-23T19:23:46.948Z,97198.69
2022-09-23T19:26:16.297Z,97205.44
2022-09-23T19:28:50.807Z,97196.69
2022-09-23T19:31:25.756Z,97199.38
2022-09-23T19:33:56.228Z,97196.72
2022-09-23T19:36:24.900Z,97206.59
2022-09-23T19:39:00.281Z,97199.88
2022-09-23T19:41:31.674Z,97197.78
2022-09-23T19:44:02.226Z,97192.03
2022-09-23T19:46:30.941Z,97193.06
2022-09-23T19:48:58.132Z,97184.06
2022-09-23T19:51:24.682Z,97188.59
2022-09-23T19:53:51.449Z,97184.97
2022-09-23T19:56:18.156Z,97175.09
2022-09-23T19:58:51.046Z,97176.19
2022-09-23T20:01:18.743Z,97175.66
2022-09-23T20:03:46.840Z,97170.53
2022-09-23T20:06:14.569Z,97170.22
2022-09-23T20:08:42.008Z,97176.41
2022-09-23T20:11:13.085Z,97170.69
2022-09-23T20:13:40.959Z,97172.53
2022-09-23T20:16:12.093Z,97170.88
2022-09-23T20:18:38.876Z,97167.06
2022-09-23T20:21:06.487Z,97164.84
2022-09-23T20:23:33.617Z,97164.56
2022-09-23T20:26:20.257Z,97161.53
2022-09-23T20:28:47.117Z,97168.00
2022-09-23T20:31:14.782Z,97166.81
2022-09-23T20:33:41.592Z,97167.41
2022-09-23T20:36:09.160Z,97170.69
2022-09-23T20:38:36.550Z,97161.78
2022-09-23T20:41:03.392Z,97164.59
2022-09-23T20:43:32.194Z,97155.41
2022-09-23T20:45:58.597Z,97154.00
2022-09-23T20:48:25.449Z,97156.28
2022-09-23T20:50:51.859Z,97150.28
2022-09-23T20:53:19.008Z,97149.22
2022-09-23T20:55:52.917Z,97146.31
2022-09-23T20:58:23.891Z,97152.84
2022-09-23T21:00:50.938Z,97149.59
2022-09-23T21:03:18.545Z,97149.47
2022-09-23T21:05:45.497Z,97147.16
2022-09-23T21:08:12.465Z,97133.94
2022-09-23T21:10:38.917Z,97137.13
2022-09-23T21:13:06.927Z,97132.88
2022-09-23T21:15:36.246Z,97139.00
2022-09-23T21:18:02.643Z,97146.91
2022-09-23T21:20:29.040Z,97146.09
2022-09-23T21:22:57.096Z,97144.50
2022-09-23T21:25:28.419Z,97149.84
2022-09-23T21:27:55.673Z,97145.44
2022-09-23T21:30:22.873Z,97148.00
2022-09-23T21:32:49.320Z,97140.84
2022-09-23T21:35:16.053Z,97147.91
2022-09-23T21:37:42.436Z,97150.59
2022-09-23T21:40:28.268Z,97149.38
2022-09-23T21:42:59.139Z,97156.34
2022-09-23T21:45:26.552Z,97144.94
2022-09-23T21:47:53.869Z,97147.84
2022-09-23T21:50:20.463Z,97149.63
2022-09-23T21:52:48.163Z,97144.69
2022-09-23T21:55:14.609Z,97152.75
2022-09-23T21:57:41.042Z,97154.69
2022-09-23T22:00:09.124Z,97153.44
2022-09-23T22:02:39.707Z,97150.16
2022-09-23T22:05:07.165Z,97144.81
2022-09-23T22:07:37.049Z,97151.28
2022-09-23T22:10:05.851Z,97153.50
2022-09-23T22:12:33.425Z,97145.25
2022-09-23T22:14:59.960Z,97148.00
2022-09-23T22:17:26.422Z,97148.38
2022-09-23T22:19:52.819Z,97143.25
2022-09-23T22:22:19.476Z,97144.63
2022-09-23T22:24:46.784Z,97147.91
2022-09-23T22:27:16.356Z,97147.72
2022-09-23T22:30:01.450Z,97143.84
2022-09-23T22:32:40.400Z,97150.56
2022-09-23T22:35:17.713Z,97146.13
2022-09-23T22:37:44.832Z,97136.28
2022-09-23T22:40:16.794Z,97137.53
2022-09-23T22:42:43.718Z,97147.28
2022-09-23T22:45:11.481Z,97138.84
2022-09-23T22:47:39.685Z,97135.75
2022-09-23T22:50:08.756Z,97136.28
2022-09-23T22:52:36.100Z,97129.38
2022-09-23T22:55:03.631Z,97127.69
2022-09-23T22:57:31.124Z,97117.91
2022-09-23T22:59:57.521Z,97128.13
2022-09-23T23:02:24.017Z,97120.03
2022-09-23T23:04:50.876Z,97129.72
2022-09-23T23:07:21.031Z,97122.19
2022-09-23T23:09:49.860Z,97127.94
2022-09-23T23:12:16.824Z,97131.56
2022-09-23T23:14:43.292Z,97121.16
2022-09-23T23:17:09.783Z,97122.44
2022-09-23T23:19:37.061Z,97114.56
2022-09-23T23:22:05.006Z,97109.41
2022-09-23T23:24:32.321Z,97101.78
2022-09-23T23:26:58.833Z,97103.19
2022-09-23T23:29:25.200Z,97095.53
2022-09-23T23:31:51.817Z,97092.84
2022-09-23T23:34:21.737Z,97083.41
2022-09-23T23:36:54.623Z,97092.91
2022-09-23T23:39:23.687Z,97094.16
2022-09-23T23:41:57.954Z,97093.91
2022-09-23T23:44:26.486Z,97093.97
2022-09-23T23:46:54.117Z,97085.91
2022-09-23T23:49:21.403Z,97086.00
2022-09-23T23:51:47.984Z,97092.34
2022-09-23T23:54:15.159Z,97085.91
2022-09-23T23:56:41.781Z,97084.63
2022-09-23T23:59:08.219Z,97078.47
